Time;durP1;ratioP1;P1;durP2;ratioP2;P2;SDS_P1;SDS_P2;PMS_P1;PMS_P2;Temp;Humidity;BMP_temperature;BMP_pressure;BME280_temperature;BME280_humidity;BME280_pressure;Samples;Min_cycle;Max_cycle;Signal;HPM_P1;HPM_P2
2022/12/27 00:02:10;;;;;;;3.07;0.73;;;;;;;;;;5014425;28;20527;-78
2022/12/27 00:04:39;;;;;;;4.03;1.50;;;;;;;;;;5013114;28;20442;-78
2022/12/27 00:07:05;;;;;;;3.53;1.03;;;;;;;;;;5013346;28;20932;-78
2022/12/27 00:09:31;;;;;;;2.73;0.50;;;;;;;;;;5014569;28;20416;-78
2022/12/27 00:11:57;;;;;;;3.53;0.93;;;;;;;;;;5014754;28;20412;-78
2022/12/27 00:14:23;;;;;;;3.90;0.50;;;;;;;;;;5014702;28;20414;-78
2022/12/27 00:16:49;;;;;;;3.70;0.87;;;;;;;;;;5014843;28;21076;-78
2022/12/27 00:19:15;;;;;;;1.37;0.73;;;;;;;;;;5014683;28;20817;-79
2022/12/27 00:21:41;;;;;;;5.43;1.13;;;;;;;;;;5004122;28;21032;-80
2022/12/27 00:24:07;;;;;;;2.23;0.80;;;;;;;;;;5009164;28;20422;-79
2022/12/27 00:26:33;;;;;;;12.73;2.40;;;;;;;;;;5005118;28;20424;-78
2022/12/27 00:29:00;;;;;;;2.20;0.37;;;;;;;;;;5003913;28;20426;-78
2022/12/27 00:31:26;;;;;;;4.37;0.60;;;;;;;;;;5003416;28;20785;-78
2022/12/27 00:33:53;;;;;;;1.90;0.50;;;;;;;;;;5020291;28;21169;-78
2022/12/27 00:36:22;;;;;;;1.90;0.80;;;;;;;;;;5018555;28;20427;-80
2022/12/27 00:38:48;;;;;;;3.20;1.07;;;;;;;;;;5017897;28;20414;-79
2022/12/27 00:41:15;;;;;;;11.67;1.43;;;;;;;;;;5020042;28;20465;-79
2022/12/27 00:43:40;;;;;;;2.90;1.17;;;;;;;;;;5003695;28;20411;-78
2022/12/27 00:46:07;;;;;;;4.57;1.80;;;;;;;;;;5003234;28;20426;-79
2022/12/27 00:48:33;;;;;;;9.80;1.70;;;;;;;;;;5019949;28;20432;-79
2022/12/27 00:51:07;;;;;;;2.90;0.43;;;;;;;;;;5018599;28;20417;-79
2022/12/27 00:53:33;;;;;;;7.87;1.40;;;;;;;;;;5002307;28;20413;-79
2022/12/27 00:55:59;;;;;;;8.87;2.10;;;;;;;;;;5003832;28;20548;-79
2022/12/27 00:58:25;;;;;;;2.97;0.43;;;;;;;;;;5004112;28;20865;-79
2022/12/27 01:00:51;;;;;;;2.73;0.50;;;;;;;;;;5003126;28;20484;-78
2022/12/27 01:03:18;;;;;;;5.70;0.60;;;;;;;;;;5010792;28;20423;-79
2022/12/27 01:05:44;;;;;;;1.40;0.57;;;;;;;;;;5014182;28;20429;-79
2022/12/27 01:08:10;;;;;;;3.37;0.67;;;;;;;;;;5012615;28;20469;-79
2022/12/27 01:10:36;;;;;;;6.90;0.90;;;;;;;;;;5014337;28;20410;-79
2022/12/27 01:13:03;;;;;;;2.40;0.50;;;;;;;;;;5013285;28;20472;-79
2022/12/27 01:15:29;;;;;;;3.70;1.10;;;;;;;;;;5014335;28;20428;-78
2022/12/27 01:17:55;;;;;;;5.60;0.20;;;;;;;;;;5014354;28;20406;-79
2022/12/27 01:20:21;;;;;;;5.30;0.73;;;;;;;;;;5014149;28;20497;-79
2022/12/27 01:22:47;;;;;;;7.20;1.13;;;;;;;;;;5013995;28;20445;-79
2022/12/27 01:25:13;;;;;;;5.27;0.90;;;;;;;;;;5014289;28;20827;-79
2022/12/27 01:27:39;;;;;;;6.30;1.80;;;;;;;;;;5012920;28;20922;-78
2022/12/27 01:30:06;;;;;;;2.53;0.50;;;;;;;;;;5013831;28;20413;-78
2022/12/27 01:32:32;;;;;;;2.10;0.53;;;;;;;;;;5012815;28;20465;-79
2022/12/27 01:34:58;;;;;;;1.37;0.40;;;;;;;;;;5014085;28;20414;-79
2022/12/27 01:37:24;;;;;;;2.07;0.97;;;;;;;;;;5013374;28;20429;-78
2022/12/27 01:39:50;;;;;;;2.40;0.40;;;;;;;;;;5013941;28;20423;-78
2022/12/27 01:45:02;;;;;;;4.60;1.20;;;;;;;;;;5014115;28;20779;-78
2022/12/27 01:47:28;;;;;;;6.93;1.30;;;;;;;;;;5012465;28;20436;-79
2022/12/27 01:49:59;;;;;;;5.57;0.90;;;;;;;;;;5013793;28;20875;-78
2022/12/27 01:52:28;;;;;;;2.00;0.50;;;;;;;;;;5013329;28;20421;-78
2022/12/27 01:54:56;;;;;;;3.70;0.97;;;;;;;;;;5013402;28;20400;-79
2022/12/27 01:57:22;;;;;;;6.43;0.60;;;;;;;;;;5013641;28;20429;-79
2022/12/27 01:59:48;;;;;;;3.80;1.10;;;;;;;;;;5013044;28;20482;-78
2022/12/27 02:02:15;;;;;;;3.03;1.47;;;;;;;;;;5011359;28;20557;-78
2022/12/27 02:04:41;;;;;;;1.43;0.30;;;;;;;;;;5012229;28;20418;-79
2022/12/27 02:07:07;;;;;;;2.73;0.87;;;;;;;;;;5011457;28;20497;-79
2022/12/27 02:09:40;;;;;;;3.50;1.33;;;;;;;;;;5012018;28;20418;-79
2022/12/27 02:12:07;;;;;;;3.10;0.40;;;;;;;;;;5012166;28;20416;-79
2022/12/27 02:14:38;;;;;;;4.53;0.90;;;;;;;;;;5012099;28;20436;-78
2022/12/27 02:17:06;;;;;;;5.43;0.83;;;;;;;;;;5012170;28;20418;-78
2022/12/27 02:19:48;;;;;;;3.07;0.60;;;;;;;;;;5011903;28;20426;-78
2022/12/27 02:22:29;;;;;;;2.70;0.30;;;;;;;;;;5012505;28;20474;-78
2022/12/27 02:24:58;;;;;;;4.37;1.03;;;;;;;;;;5013126;28;20417;-78
2022/12/27 02:27:35;;;;;;;4.17;1.63;;;;;;;;;;5013199;28;20439;-79
2022/12/27 02:30:02;;;;;;;3.77;0.50;;;;;;;;;;5013156;28;20407;-78
2022/12/27 02:32:30;;;;;;;2.43;0.97;;;;;;;;;;5012798;28;20418;-78
2022/12/27 02:34:59;;;;;;;5.90;0.67;;;;;;;;;;5013006;28;20418;-79
2022/12/27 02:37:27;;;;;;;5.53;1.10;;;;;;;;;;5011454;28;20793;-78
2022/12/27 02:39:54;;;;;;;6.40;0.80;;;;;;;;;;5011929;28;20429;-78
2022/12/27 02:54:00;;;;;;;2.00;0.67;;;;;;;;;;5012759;28;20392;-78
2022/12/27 02:59:25;;;;;;;1.77;0.53;;;;;;;;;;5013005;28;20985;-78
2022/12/27 03:04:35;;;;;;;2.83;0.40;;;;;;;;;;5012952;28;20456;-78
2022/12/27 03:07:04;;;;;;;2.97;0.70;;;;;;;;;;5010912;28;20430;-79
2022/12/27 03:18:38;;;;;;;2.60;0.90;;;;;;;;;;5012592;28;20946;-78
2022/12/27 03:26:39;;;;;;;3.50;1.30;;;;;;;;;;5012881;28;20466;-79
2022/12/27 03:34:40;;;;;;;5.80;1.47;;;;;;;;;;5016615;28;20873;-78
2022/12/27 03:40:29;;;;;;;5.87;1.13;;;;;;;;;;5016513;28;20417;-79
2022/12/27 03:43:12;;;;;;;6.67;0.90;;;;;;;;;;4981576;28;20434;-79
2022/12/27 03:48:47;;;;;;;3.63;1.20;;;;;;;;;;4996853;28;20450;-79
2022/12/27 03:51:14;;;;;;;8.00;1.33;;;;;;;;;;5011525;28;20415;-79
2022/12/27 03:53:42;;;;;;;7.10;1.20;;;;;;;;;;5011275;28;20903;-79
2022/12/27 03:56:09;;;;;;;8.67;1.17;;;;;;;;;;5011181;28;21009;-80
2022/12/27 03:58:35;;;;;;;10.07;1.93;;;;;;;;;;4996317;28;20497;-79
2022/12/27 04:01:01;;;;;;;5.77;1.30;;;;;;;;;;5014051;28;20469;-79
2022/12/27 04:03:27;;;;;;;3.70;1.27;;;;;;;;;;5015725;28;20422;-79
2022/12/27 04:05:53;;;;;;;4.73;1.50;;;;;;;;;;5015544;28;20448;-80
2022/12/27 04:35:44;;;;;;;9.33;2.57;;;;;;;;;;5015782;28;20417;-79
2022/12/27 04:38:16;;;;;;;4.10;1.60;;;;;;;;;;5013217;28;20780;-79
2022/12/27 04:57:17;;;;;;;5.83;1.67;;;;;;;;;;5015363;28;20417;-78
2022/12/27 05:02:28;;;;;;;5.13;1.40;;;;;;;;;;5014921;28;20479;-78
2022/12/27 05:04:54;;;;;;;5.03;2.43;;;;;;;;;;5014951;28;20408;-78
2022/12/27 05:15:37;;;;;;;3.97;1.90;;;;;;;;;;5014825;28;20410;-79
2022/12/27 05:18:04;;;;;;;2.40;2.13;;;;;;;;;;5014731;28;20410;-78
2022/12/27 05:20:30;;;;;;;3.00;1.57;;;;;;;;;;5014548;28;20895;-78
2022/12/27 05:25:44;;;;;;;4.77;2.30;;;;;;;;;;5014867;28;20940;-78
2022/12/27 05:28:11;;;;;;;5.60;2.20;;;;;;;;;;5013151;28;20911;-78
2022/12/27 05:30:38;;;;;;;6.03;2.00;;;;;;;;;;5013087;28;20903;-79
2022/12/27 05:33:04;;;;;;;10.93;3.53;;;;;;;;;;5013100;28;20514;-79
2022/12/27 05:35:32;;;;;;;4.40;1.43;;;;;;;;;;5013139;28;20505;-78
2022/12/27 05:37:58;;;;;;;3.40;1.70;;;;;;;;;;5012720;28;20461;-79
2022/12/27 05:40:24;;;;;;;3.53;2.80;;;;;;;;;;5012853;28;20414;-79
2022/12/27 05:42:50;;;;;;;10.97;2.63;;;;;;;;;;5014209;28;20429;-79
2022/12/27 05:45:16;;;;;;;8.27;3.00;;;;;;;;;;5012920;28;20410;-79
2022/12/27 05:47:42;;;;;;;7.83;3.60;;;;;;;;;;5014099;28;20428;-79
2022/12/27 05:50:09;;;;;;;4.47;2.20;;;;;;;;;;5014163;28;20406;-79
2022/12/27 05:52:35;;;;;;;3.53;2.30;;;;;;;;;;5013726;28;20430;-79
2022/12/27 05:55:01;;;;;;;4.03;2.40;;;;;;;;;;5012500;28;20465;-79
2022/12/27 05:57:27;;;;;;;4.93;2.60;;;;;;;;;;5013684;28;20425;-79
2022/12/27 05:59:53;;;;;;;6.30;1.67;;;;;;;;;;5013774;28;20445;-79
2022/12/27 06:02:19;;;;;;;10.43;3.50;;;;;;;;;;5013763;28;20485;-79
2022/12/27 06:04:45;;;;;;;3.40;1.70;;;;;;;;;;5012660;28;20415;-79
2022/12/27 06:07:12;;;;;;;4.90;2.20;;;;;;;;;;5012196;28;20461;-79
2022/12/27 06:09:38;;;;;;;3.83;2.23;;;;;;;;;;5012503;28;20418;-78
2022/12/27 06:12:04;;;;;;;3.90;1.20;;;;;;;;;;5012484;28;20422;-78
2022/12/27 06:14:30;;;;;;;4.10;1.40;;;;;;;;;;5013752;28;20890;-78
2022/12/27 06:16:56;;;;;;;7.50;2.40;;;;;;;;;;5013717;28;20484;-78
2022/12/27 06:19:22;;;;;;;6.00;2.00;;;;;;;;;;5012381;28;20425;-80
2022/12/27 06:21:48;;;;;;;4.13;1.33;;;;;;;;;;5013151;28;20470;-80
2022/12/27 06:24:14;;;;;;;3.73;1.77;;;;;;;;;;5012388;28;20419;-80
2022/12/27 06:26:41;;;;;;;6.73;1.63;;;;;;;;;;5012131;28;20487;-79
2022/12/27 06:29:07;;;;;;;2.90;1.47;;;;;;;;;;5012130;28;20922;-79
2022/12/27 06:31:33;;;;;;;5.87;1.70;;;;;;;;;;5012091;28;20457;-79
2022/12/27 06:33:58;;;;;;;3.73;1.43;;;;;;;;;;5012137;28;20898;-78
2022/12/27 06:36:26;;;;;;;6.10;2.23;;;;;;;;;;5013023;28;20821;-79
2022/12/27 06:38:52;;;;;;;6.90;1.80;;;;;;;;;;5013257;28;20936;-79
2022/12/27 06:41:18;;;;;;;8.53;2.10;;;;;;;;;;5012105;28;21014;-79
2022/12/27 06:43:45;;;;;;;8.30;2.10;;;;;;;;;;5012018;28;20922;-80
2022/12/27 06:46:13;;;;;;;2.70;1.17;;;;;;;;;;5013320;28;20424;-79
2022/12/27 06:48:39;;;;;;;6.10;1.47;;;;;;;;;;5013197;28;20760;-79
2022/12/27 06:51:06;;;;;;;2.13;1.23;;;;;;;;;;5012878;28;20440;-79
2022/12/27 06:53:32;;;;;;;3.80;1.53;;;;;;;;;;5013243;28;20441;-79
2022/12/27 06:56:02;;;;;;;2.67;1.07;;;;;;;;;;5011766;28;20509;-78
2022/12/27 06:58:29;;;;;;;2.90;1.50;;;;;;;;;;5013252;28;20811;-78
2022/12/27 07:00:54;;;;;;;6.87;1.67;;;;;;;;;;5013128;28;20509;-78
2022/12/27 07:03:20;;;;;;;7.13;2.10;;;;;;;;;;5013362;28;20936;-78
2022/12/27 07:05:46;;;;;;;6.03;1.13;;;;;;;;;;5013207;28;20965;-78
2022/12/27 07:08:15;;;;;;;4.27;1.47;;;;;;;;;;5015963;28;20418;-78
2022/12/27 07:10:41;;;;;;;3.07;1.63;;;;;;;;;;5015969;28;20418;-78
2022/12/27 07:13:07;;;;;;;7.20;1.93;;;;;;;;;;5017201;28;20930;-79
2022/12/27 07:15:33;;;;;;;7.50;1.30;;;;;;;;;;5017154;28;20417;-79
2022/12/27 07:17:59;;;;;;;3.30;1.23;;;;;;;;;;5017071;28;20800;-79
2022/12/27 07:20:25;;;;;;;5.27;1.50;;;;;;;;;;5017073;28;20418;-78
2022/12/27 07:22:51;;;;;;;5.47;0.90;;;;;;;;;;5016618;28;20772;-79
2022/12/27 07:25:17;;;;;;;3.03;0.93;;;;;;;;;;5016863;28;20413;-78
2022/12/27 07:27:43;;;;;;;6.23;1.47;;;;;;;;;;5015592;28;20524;-78
2022/12/27 07:30:09;;;;;;;3.83;1.40;;;;;;;;;;5016788;28;20500;-78
2022/12/27 07:32:35;;;;;;;2.97;1.83;;;;;;;;;;5016851;28;20418;-78
2022/12/27 07:35:05;;;;;;;4.80;1.50;;;;;;;;;;5016925;28;20421;-78
2022/12/27 07:37:31;;;;;;;9.20;1.60;;;;;;;;;;5016492;28;20421;-79
2022/12/27 07:39:57;;;;;;;4.60;1.20;;;;;;;;;;5015561;28;20427;-79
2022/12/27 07:42:23;;;;;;;2.10;0.70;;;;;;;;;;5015338;28;20473;-79
2022/12/27 07:44:49;;;;;;;2.93;1.37;;;;;;;;;;5016905;28;20476;-79
2022/12/27 07:47:15;;;;;;;3.53;1.17;;;;;;;;;;5015355;28;20414;-79
2022/12/27 07:49:41;;;;;;;5.77;2.20;;;;;;;;;;5016524;28;20452;-80
2022/12/27 07:52:07;;;;;;;7.90;2.23;;;;;;;;;;5015119;28;20887;-79
2022/12/27 07:54:33;;;;;;;3.83;1.43;;;;;;;;;;5015194;28;20561;-80
2022/12/27 07:56:59;;;;;;;3.33;1.30;;;;;;;;;;5015101;28;20560;-81
2022/12/27 07:59:26;;;;;;;4.63;1.43;;;;;;;;;;5014773;28;20419;-80
2022/12/27 08:02:04;;;;;;;4.83;1.80;;;;;;;;;;5014863;28;20484;-79
2022/12/27 08:04:30;;;;;;;3.80;1.37;;;;;;;;;;5016261;28;20757;-81
2022/12/27 08:07:00;;;;;;;4.77;0.90;;;;;;;;;;5016105;28;20453;-81
2022/12/27 08:09:28;;;;;;;2.73;1.80;;;;;;;;;;5014991;28;20834;-79
2022/12/27 08:11:55;;;;;;;3.43;1.20;;;;;;;;;;5016186;28;20425;-79
2022/12/27 08:14:21;;;;;;;4.60;2.03;;;;;;;;;;5014818;28;20400;-80
2022/12/27 08:16:47;;;;;;;5.53;1.30;;;;;;;;;;5016055;28;20428;-80
2022/12/27 08:19:13;;;;;;;7.83;2.10;;;;;;;;;;5014717;28;20410;-81
2022/12/27 08:21:39;;;;;;;4.63;1.20;;;;;;;;;;5015504;28;20496;-79
2022/12/27 08:24:05;;;;;;;3.70;1.00;;;;;;;;;;5015704;28;20966;-80
2022/12/27 08:26:31;;;;;;;4.20;1.60;;;;;;;;;;5015938;28;20414;-80
2022/12/27 08:28:57;;;;;;;4.40;1.73;;;;;;;;;;5015959;28;20819;-80
2022/12/27 08:31:23;;;;;;;6.07;1.97;;;;;;;;;;5015771;28;20418;-79
2022/12/27 08:33:49;;;;;;;5.10;1.60;;;;;;;;;;5015757;28;20478;-79
2022/12/27 08:36:16;;;;;;;1.00;0.60;;;;;;;;;;5015087;28;20498;-79
2022/12/27 08:38:42;;;;;;;3.73;1.70;;;;;;;;;;5015396;28;20955;-78
2022/12/27 08:41:08;;;;;;;5.63;1.20;;;;;;;;;;5015291;28;21031;-78
2022/12/27 08:43:34;;;;;;;8.57;1.40;;;;;;;;;;5015319;28;20938;-78
2022/12/27 08:46:04;;;;;;;1.80;0.70;;;;;;;;;;5015251;28;20471;-80
2022/12/27 08:48:32;;;;;;;2.20;0.73;;;;;;;;;;5015261;28;20469;-79
2022/12/27 08:51:03;;;;;;;10.80;1.73;;;;;;;;;;5013626;28;20427;-79
2022/12/27 08:53:29;;;;;;;2.00;1.47;;;;;;;;;;5015256;28;20422;-78
2022/12/27 08:55:56;;;;;;;3.20;1.20;;;;;;;;;;5014905;28;20966;-79
2022/12/27 08:58:21;;;;;;;5.07;0.80;;;;;;;;;;5014958;28;20920;-80
2022/12/27 09:00:47;;;;;;;5.80;1.20;;;;;;;;;;5014989;28;20455;-79
2022/12/27 09:03:14;;;;;;;5.57;1.50;;;;;;;;;;5014843;28;20424;-79
2022/12/27 09:05:42;;;;;;;3.07;0.90;;;;;;;;;;5014514;28;20918;-79
2022/12/27 09:08:08;;;;;;;2.97;1.13;;;;;;;;;;5013566;28;20510;-79
2022/12/27 09:10:34;;;;;;;2.13;0.73;;;;;;;;;;5014829;28;20446;-79
2022/12/27 09:13:00;;;;;;;5.70;0.83;;;;;;;;;;5013396;28;20507;-78
2022/12/27 09:15:26;;;;;;;8.33;3.43;;;;;;;;;;5014624;28;20418;-79
2022/12/27 09:17:52;;;;;;;4.80;1.23;;;;;;;;;;5014667;28;20516;-79
2022/12/27 09:20:18;;;;;;;3.63;1.10;;;;;;;;;;5013336;28;20453;-79
2022/12/27 09:22:44;;;;;;;4.83;1.30;;;;;;;;;;5012884;28;20537;-79
2022/12/27 09:25:10;;;;;;;2.37;0.70;;;;;;;;;;5005610;28;20411;-79
2022/12/27 09:27:36;;;;;;;11.67;1.97;;;;;;;;;;5003159;28;20510;-79
2022/12/27 09:30:04;;;;;;;2.20;1.47;;;;;;;;;;5008937;28;20422;-79
2022/12/27 09:32:30;;;;;;;1.63;0.87;;;;;;;;;;5010956;28;20444;-79
2022/12/27 09:34:56;;;;;;;2.40;1.10;;;;;;;;;;5008516;28;20939;-79
2022/12/27 09:37:21;;;;;;;5.73;0.60;;;;;;;;;;5018585;28;20510;-79
2022/12/27 09:39:47;;;;;;;5.60;1.20;;;;;;;;;;5002018;28;20411;-79
2022/12/27 09:42:32;;;;;;;4.40;0.90;;;;;;;;;;5003486;28;20532;-79
2022/12/27 09:44:58;;;;;;;7.13;1.00;;;;;;;;;;5016971;28;20911;-79
2022/12/27 09:47:34;;;;;;;4.83;0.93;;;;;;;;;;5003917;28;20479;-79
2022/12/27 09:50:05;;;;;;;2.93;1.13;;;;;;;;;;5001298;28;20663;-79
2022/12/27 09:52:33;;;;;;;6.00;1.30;;;;;;;;;;5001799;28;20927;-79
2022/12/27 09:55:05;;;;;;;2.50;0.67;;;;;;;;;;5002330;28;20518;-79
2022/12/27 09:57:37;;;;;;;3.23;0.83;;;;;;;;;;5001294;28;20419;-79
2022/12/27 10:00:05;;;;;;;4.00;1.10;;;;;;;;;;5003642;28;20411;-79
2022/12/27 10:02:33;;;;;;;2.50;0.70;;;;;;;;;;5002087;28;20467;-79
2022/12/27 10:05:05;;;;;;;3.40;0.83;;;;;;;;;;5002932;28;20413;-79
2022/12/27 10:07:41;;;;;;;2.00;0.40;;;;;;;;;;5000764;28;20409;-79
2022/12/27 10:10:18;;;;;;;8.60;1.00;;;;;;;;;;5003204;28;20399;-79
2022/12/27 10:12:47;;;;;;;8.47;1.23;;;;;;;;;;5007389;28;20533;-79
2022/12/27 10:15:38;;;;;;;4.97;0.90;;;;;;;;;;5000884;28;20444;-79
2022/12/27 10:18:22;;;;;;;6.40;0.90;;;;;;;;;;5016091;28;20454;-79
2022/12/27 10:20:54;;;;;;;5.70;0.97;;;;;;;;;;5000775;28;20472;-79
2022/12/27 10:23:22;;;;;;;4.10;1.07;;;;;;;;;;5002100;28;20813;-79
2022/12/27 10:25:54;;;;;;;9.43;1.03;;;;;;;;;;5003323;28;20416;-79
2022/12/27 10:28:24;;;;;;;4.53;0.70;;;;;;;;;;5002752;28;20400;-79
2022/12/27 10:30:51;;;;;;;3.90;1.13;;;;;;;;;;5003340;28;20402;-79
2022/12/27 10:33:23;;;;;;;4.77;0.60;;;;;;;;;;5011517;28;20951;-79
2022/12/27 10:35:49;;;;;;;3.83;1.30;;;;;;;;;;5013054;28;20419;-78
2022/12/27 10:38:14;;;;;;;3.13;0.60;;;;;;;;;;5008602;28;20460;-79
2022/12/27 10:40:51;;;;;;;2.40;0.93;;;;;;;;;;5001744;28;20409;-79
2022/12/27 10:43:26;;;;;;;2.63;0.87;;;;;;;;;;5008149;28;20473;-80
2022/12/27 10:45:52;;;;;;;4.53;0.60;;;;;;;;;;5000470;28;20405;-80
2022/12/27 10:48:26;;;;;;;4.40;0.83;;;;;;;;;;5007267;28;20420;-80
2022/12/27 10:50:54;;;;;;;8.83;1.17;;;;;;;;;;5000153;28;20479;-81
2022/12/27 10:53:26;;;;;;;6.20;0.87;;;;;;;;;;5003030;28;20986;-80
2022/12/27 10:56:03;;;;;;;3.03;0.70;;;;;;;;;;5007033;28;20457;-80
2022/12/27 10:58:32;;;;;;;2.37;0.50;;;;;;;;;;5001093;28;20434;-80
2022/12/27 11:00:58;;;;;;;5.10;0.77;;;;;;;;;;5008736;28;20584;-81
2022/12/27 11:03:25;;;;;;;3.60;0.80;;;;;;;;;;5002881;28;20510;-81
2022/12/27 11:06:16;;;;;;;3.13;0.27;;;;;;;;;;5015766;28;20490;-80
2022/12/27 11:08:42;;;;;;;3.60;0.77;;;;;;;;;;5000307;28;20473;-80
2022/12/27 11:11:11;;;;;;;4.17;0.93;;;;;;;;;;5000293;28;20869;-80
2022/12/27 11:13:37;;;;;;;4.03;1.00;;;;;;;;;;5003029;28;20434;-81
2022/12/27 11:16:04;;;;;;;2.57;0.83;;;;;;;;;;5001010;28;20410;-81
2022/12/27 11:18:36;;;;;;;4.80;0.80;;;;;;;;;;5002723;28;20537;-81
2022/12/27 11:21:03;;;;;;;4.00;0.70;;;;;;;;;;5002516;28;20981;-80
2022/12/27 11:23:36;;;;;;;7.07;1.23;;;;;;;;;;5001523;28;20434;-81
2022/12/27 11:26:04;;;;;;;5.33;0.47;;;;;;;;;;5001016;28;20819;-81
2022/12/27 11:28:30;;;;;;;5.87;0.40;;;;;;;;;;5009282;28;20426;-80
2022/12/27 11:31:04;;;;;;;2.67;0.50;;;;;;;;;;5002649;28;20410;-81
2022/12/27 11:33:36;;;;;;;5.00;1.30;;;;;;;;;;5003672;28;20823;-81
2022/12/27 11:36:03;;;;;;;7.27;0.63;;;;;;;;;;5016375;28;20900;-82
2022/12/27 11:38:30;;;;;;;7.00;1.00;;;;;;;;;;5017944;28;20497;-81
2022/12/27 11:40:59;;;;;;;1.97;0.20;;;;;;;;;;5001980;28;20461;-81
2022/12/27 11:43:26;;;;;;;3.90;0.50;;;;;;;;;;5000660;28;20431;-80
2022/12/27 11:45:54;;;;;;;3.93;1.40;;;;;;;;;;5002470;28;20406;-81
2022/12/27 11:48:25;;;;;;;2.93;0.57;;;;;;;;;;4998343;28;20530;-80
2022/12/27 11:51:00;;;;;;;3.43;0.27;;;;;;;;;;4992829;28;20413;-81
2022/12/27 11:53:38;;;;;;;2.70;0.70;;;;;;;;;;4994697;28;20418;-80
2022/12/27 11:56:25;;;;;;;3.30;0.53;;;;;;;;;;4996334;28;20470;-81
2022/12/27 11:59:16;;;;;;;2.70;0.47;;;;;;;;;;4996657;28;20422;-78
2022/12/27 12:01:57;;;;;;;4.70;0.67;;;;;;;;;;4996705;28;20553;-82
2022/12/27 12:04:40;;;;;;;6.33;0.70;;;;;;;;;;4996402;28;20412;-79
2022/12/27 12:07:26;;;;;;;4.40;0.40;;;;;;;;;;4995917;28;20753;-78
2022/12/27 12:10:04;;;;;;;6.03;0.80;;;;;;;;;;4996278;28;20421;-80
2022/12/27 12:12:56;;;;;;;1.43;0.20;;;;;;;;;;5011337;28;20427;-77
2022/12/27 12:15:31;;;;;;;4.20;0.37;;;;;;;;;;4996194;28;20422;-78
2022/12/27 12:18:15;;;;;;;3.60;0.40;;;;;;;;;;4995794;28;20781;-77
2022/12/27 12:20:44;;;;;;;4.30;0.93;;;;;;;;;;4995506;28;20418;-79
2022/12/27 12:23:12;;;;;;;4.93;0.50;;;;;;;;;;5004713;28;20426;-79
2022/12/27 12:25:47;;;;;;;4.47;0.80;;;;;;;;;;5014420;28;20510;-79
2022/12/27 12:28:16;;;;;;;1.37;0.40;;;;;;;;;;5015601;28;20416;-79
2022/12/27 12:30:52;;;;;;;4.00;0.60;;;;;;;;;;5014100;28;20434;-79
2022/12/27 12:33:27;;;;;;;3.00;0.50;;;;;;;;;;5014201;28;20944;-78
2022/12/27 12:36:19;;;;;;;6.40;0.60;;;;;;;;;;5015182;28;20424;-79
2022/12/27 12:38:50;;;;;;;7.63;0.67;;;;;;;;;;5014275;28;20418;-79
2022/12/27 12:41:25;;;;;;;3.23;0.80;;;;;;;;;;5015444;28;20458;-80
2022/12/27 12:43:51;;;;;;;2.57;0.30;;;;;;;;;;5013940;28;20426;-80
2022/12/27 12:46:26;;;;;;;6.93;1.27;;;;;;;;;;5014218;28;20408;-80
2022/12/27 12:49:01;;;;;;;4.77;1.07;;;;;;;;;;5013645;28;20813;-80
2022/12/27 12:51:48;;;;;;;2.20;1.30;;;;;;;;;;5013541;28;20421;-80
2022/12/27 12:54:43;;;;;;;3.90;0.80;;;;;;;;;;5013702;28;20429;-80
2022/12/27 12:57:16;;;;;;;7.03;0.63;;;;;;;;;;5014587;28;20763;-80
2022/12/27 12:59:42;;;;;;;4.37;1.00;;;;;;;;;;5013287;28;20418;-80
2022/12/27 13:02:38;;;;;;;6.73;0.60;;;;;;;;;;5013294;28;20568;-80
2022/12/27 13:05:17;;;;;;;2.50;1.03;;;;;;;;;;5003697;28;20917;-81
2022/12/27 13:08:05;;;;;;;6.17;0.83;;;;;;;;;;5013752;28;20425;-79
2022/12/27 13:10:36;;;;;;;6.27;0.90;;;;;;;;;;5014888;28;20404;-79
2022/12/27 13:13:15;;;;;;;3.30;0.87;;;;;;;;;;5013580;28;20922;-79
2022/12/27 13:16:04;;;;;;;2.60;0.67;;;;;;;;;;5014799;28;20516;-79
2022/12/27 13:18:41;;;;;;;3.87;0.60;;;;;;;;;;4995127;28;20904;-78
2022/12/27 13:21:07;;;;;;;3.70;0.80;;;;;;;;;;5013117;28;20466;-79
2022/12/27 13:23:40;;;;;;;6.53;0.70;;;;;;;;;;5014487;28;20932;-78
2022/12/27 13:26:21;;;;;;;6.43;1.40;;;;;;;;;;5014626;28;20865;-78
2022/12/27 13:29:14;;;;;;;4.73;0.73;;;;;;;;;;5014494;28;20418;-79
2022/12/27 13:31:40;;;;;;;3.13;0.70;;;;;;;;;;5013097;28;20920;-79
2022/12/27 13:34:21;;;;;;;6.10;0.60;;;;;;;;;;5013102;28;21028;-80
2022/12/27 13:37:08;;;;;;;9.83;1.47;;;;;;;;;;5014036;28;20421;-79
2022/12/27 13:39:54;;;;;;;4.60;1.30;;;;;;;;;;5014204;28;20420;-78
2022/12/27 13:42:44;;;;;;;5.80;0.97;;;;;;;;;;5013525;28;20477;-80
2022/12/27 13:45:22;;;;;;;4.83;1.33;;;;;;;;;;5014198;28;20754;-79
2022/12/27 13:47:53;;;;;;;4.13;1.10;;;;;;;;;;5014056;28;20417;-79
2022/12/27 13:50:29;;;;;;;3.57;1.23;;;;;;;;;;5013786;28;20803;-80
2022/12/27 13:52:55;;;;;;;5.00;0.63;;;;;;;;;;5012791;28;20462;-79
2022/12/27 13:55:24;;;;;;;4.43;0.93;;;;;;;;;;5013790;28;20458;-79
2022/12/27 13:58:01;;;;;;;6.93;0.50;;;;;;;;;;5012812;28;20196;-81
2022/12/27 14:00:35;;;;;;;6.63;1.47;;;;;;;;;;5012843;28;20941;-80
2022/12/27 14:03:13;;;;;;;5.10;1.03;;;;;;;;;;5012617;28;20437;-79
2022/12/27 14:05:57;;;;;;;4.33;0.70;;;;;;;;;;5012382;28;20424;-80
2022/12/27 14:08:32;;;;;;;7.70;0.70;;;;;;;;;;5013962;28;20418;-80
2022/12/27 14:10:58;;;;;;;6.03;1.90;;;;;;;;;;5013888;28;20462;-78
2022/12/27 14:13:36;;;;;;;8.23;1.33;;;;;;;;;;5013876;28;20440;-78
2022/12/27 14:16:17;;;;;;;4.53;0.90;;;;;;;;;;5013095;28;20787;-79
2022/12/27 14:18:55;;;;;;;6.80;1.47;;;;;;;;;;5012432;28;20415;-79
2022/12/27 14:21:40;;;;;;;5.80;1.53;;;;;;;;;;5013150;28;20470;-79
2022/12/27 14:24:25;;;;;;;3.53;0.80;;;;;;;;;;5009380;28;20461;-79
2022/12/27 14:27:06;;;;;;;10.60;1.27;;;;;;;;;;5000365;28;20411;-79
2022/12/27 14:29:54;;;;;;;3.10;0.83;;;;;;;;;;5006229;28;20422;-79
2022/12/27 14:32:33;;;;;;;5.90;1.53;;;;;;;;;;5016415;28;20517;-79
2022/12/27 14:35:08;;;;;;;4.00;1.27;;;;;;;;;;5000939;28;20748;-79
2022/12/27 14:37:46;;;;;;;4.83;1.70;;;;;;;;;;5001668;28;20486;-79
2022/12/27 14:40:18;;;;;;;3.00;1.10;;;;;;;;;;5015906;28;20412;-79
2022/12/27 14:42:47;;;;;;;6.27;1.20;;;;;;;;;;5000294;28;20564;-80
2022/12/27 14:45:31;;;;;;;4.87;0.93;;;;;;;;;;5002309;28;20432;-80
2022/12/27 14:48:16;;;;;;;6.10;1.47;;;;;;;;;;5016530;28;20421;-80
2022/12/27 14:50:53;;;;;;;1.67;1.00;;;;;;;;;;5003201;28;20577;-80
2022/12/27 14:53:22;;;;;;;6.80;1.37;;;;;;;;;;5010759;28;20417;-81
2022/12/27 14:55:48;;;;;;;6.20;1.90;;;;;;;;;;5013200;28;20522;-81
2022/12/27 14:58:23;;;;;;;8.63;1.30;;;;;;;;;;5013363;28;20423;-81
2022/12/27 15:01:00;;;;;;;5.57;0.87;;;;;;;;;;5012067;28;20475;-81
2022/12/27 15:03:43;;;;;;;2.77;1.30;;;;;;;;;;5013480;28;20414;-79
2022/12/27 15:06:27;;;;;;;9.40;1.23;;;;;;;;;;5012847;28;20414;-79
2022/12/27 15:09:12;;;;;;;9.07;2.10;;;;;;;;;;5011844;28;20422;-79
2022/12/27 15:12:03;;;;;;;9.83;1.50;;;;;;;;;;5013117;28;20907;-79
2022/12/27 15:14:32;;;;;;;4.20;1.73;;;;;;;;;;5012850;28;20410;-79
2022/12/27 15:17:30;;;;;;;4.30;1.40;;;;;;;;;;5013084;28;20414;-81
2022/12/27 15:20:17;;;;;;;2.67;1.23;;;;;;;;;;4979765;28;20481;-78
2022/12/27 15:23:01;;;;;;;5.00;1.93;;;;;;;;;;5012909;28;20531;-82
2022/12/27 15:25:36;;;;;;;7.43;1.10;;;;;;;;;;5012792;28;20907;-79
2022/12/27 15:28:13;;;;;;;6.80;1.63;;;;;;;;;;5012728;28;20458;-79
2022/12/27 15:31:08;;;;;;;4.13;0.90;;;;;;;;;;5016565;28;20406;-80
2022/12/27 15:33:53;;;;;;;4.87;1.87;;;;;;;;;;4963551;28;20802;-81
2022/12/27 15:36:22;;;;;;;9.50;2.07;;;;;;;;;;5016256;28;20448;-81
2022/12/27 15:38:49;;;;;;;7.70;2.77;;;;;;;;;;5016552;28;20407;-79
2022/12/27 15:41:34;;;;;;;5.60;2.40;;;;;;;;;;5016479;28;20560;-79
2022/12/27 15:44:05;;;;;;;9.33;3.40;;;;;;;;;;5015291;28;20414;-81
2022/12/27 15:46:37;;;;;;;6.10;2.40;;;;;;;;;;5015235;28;20429;-79
2022/12/27 15:49:13;;;;;;;9.90;2.50;;;;;;;;;;5016466;28;20801;-79
2022/12/27 15:51:58;;;;;;;5.57;1.40;;;;;;;;;;5015925;28;20407;-79
2022/12/27 15:54:24;;;;;;;6.87;1.80;;;;;;;;;;5016321;28;20402;-79
2022/12/27 15:57:06;;;;;;;6.20;1.90;;;;;;;;;;5016171;28;20806;-79
2022/12/27 15:59:52;;;;;;;7.50;2.97;;;;;;;;;;5016196;28;20465;-79
2022/12/27 16:02:24;;;;;;;4.07;1.30;;;;;;;;;;5014811;28;20806;-80
2022/12/27 16:04:52;;;;;;;8.60;2.97;;;;;;;;;;5015818;28;20818;-79
2022/12/27 16:07:35;;;;;;;7.77;2.57;;;;;;;;;;5015957;28;20819;-79
2022/12/27 16:10:21;;;;;;;10.40;3.30;;;;;;;;;;5016063;28;20436;-82
2022/12/27 16:13:06;;;;;;;4.70;2.50;;;;;;;;;;5005628;28;21007;-81
2022/12/27 16:15:52;;;;;;;5.87;3.07;;;;;;;;;;5016004;28;20914;-80
2022/12/27 16:18:18;;;;;;;6.57;2.70;;;;;;;;;;5015884;28;20425;-78
2022/12/27 16:21:01;;;;;;;9.30;2.37;;;;;;;;;;5015471;28;20470;-78
2022/12/27 16:23:32;;;;;;;7.83;4.03;;;;;;;;;;5015895;28;20473;-78
2022/12/27 16:26:13;;;;;;;3.60;2.83;;;;;;;;;;5015773;28;20453;-79
2022/12/27 16:28:39;;;;;;;4.10;2.60;;;;;;;;;;5015700;28;20910;-78
2022/12/27 16:31:10;;;;;;;7.10;2.53;;;;;;;;;;5014484;28;20502;-78
2022/12/27 16:33:37;;;;;;;4.27;3.00;;;;;;;;;;5015712;28;20402;-78
2022/12/27 16:36:12;;;;;;;12.70;3.13;;;;;;;;;;5015147;28;20417;-78
2022/12/27 16:38:39;;;;;;;6.20;2.90;;;;;;;;;;5015206;28;20466;-79
2022/12/27 16:41:21;;;;;;;8.57;1.80;;;;;;;;;;5014563;28;20553;-78
2022/12/27 16:43:59;;;;;;;3.20;1.63;;;;;;;;;;5015524;28;20498;-78
2022/12/27 16:46:43;;;;;;;8.27;1.70;;;;;;;;;;5015506;28;20511;-80
2022/12/27 16:49:17;;;;;;;9.40;2.90;;;;;;;;;;5015371;28;20512;-79
2022/12/27 16:51:49;;;;;;;6.30;3.13;;;;;;;;;;5015119;28;20505;-79